sensor_id;sensor_type;location;lat;lon;timestamp;pressure;altitude;pressure_sealevel;temperature;humidity
13594;BME280;6449;47.666;9.160;2023-11-21T00:03:44;96537.31;;;8.32;100.00
13594;BME280;6449;47.666;9.160;2023-11-21T00:08:40;96534.78;;;8.31;100.00
13594;BME280;6449;47.666;9.160;2023-11-21T00:13:33;96521.63;;;8.32;100.00
13594;BME280;6449;47.666;9.160;2023-11-21T00:18:27;96515.28;;;8.36;100.00
13594;BME280;6449;47.666;9.160;2023-11-21T00:23:20;96515.88;;;8.40;100.00
13594;BME280;6449;47.666;9.160;2023-11-21T00:28:15;96506.25;;;8.40;100.00
13594;BME280;6449;47.666;9.160;2023-11-21T00:33:08;96506.38;;;8.39;100.00
13594;BME280;6449;47.666;9.160;2023-11-21T00:38:02;96501.03;;;8.40;100.00
13594;BME280;6449;47.666;9.160;2023-11-21T00:42:55;96513.06;;;8.30;100.00
13594;BME280;6449;47.666;9.160;2023-11-21T00:47:50;96494.56;;;8.33;100.00
13594;BME280;6449;47.666;9.160;2023-11-21T00:52:43;96491.66;;;8.38;100.00
13594;BME280;6449;47.666;9.160;2023-11-21T00:57:37;96484.00;;;8.35;100.00
13594;BME280;6449;47.666;9.160;2023-11-21T01:02:30;96486.44;;;8.38;100.00
13594;BME280;6449;47.666;9.160;2023-11-21T01:07:25;96493.44;;;8.37;100.00
13594;BME280;6449;47.666;9.160;2023-11-21T01:12:19;96503.56;;;8.29;100.00
13594;BME280;6449;47.666;9.160;2023-11-21T01:17:12;96494.19;;;8.27;100.00
13594;BME280;6449;47.666;9.160;2023-11-21T01:22:06;96500.13;;;8.29;100.00
13594;BME280;6449;47.666;9.160;2023-11-21T01:27:00;96497.63;;;8.27;100.00
13594;BME280;6449;47.666;9.160;2023-11-21T01:31:54;96495.00;;;8.27;100.00
13594;BME280;6449;47.666;9.160;2023-11-21T01:36:47;96504.38;;;8.30;100.00
13594;BME280;6449;47.666;9.160;2023-11-21T01:41:41;96492.34;;;8.40;100.00
13594;BME280;6449;47.666;9.160;2023-11-21T01:46:38;96495.38;;;8.34;100.00
13594;BME280;6449;47.666;9.160;2023-11-21T01:51:32;96489.16;;;8.36;100.00
13594;BME280;6449;47.666;9.160;2023-11-21T01:56:26;96483.06;;;8.36;100.00
13594;BME280;6449;47.666;9.160;2023-11-21T02:01:22;96474.91;;;8.40;100.00
13594;BME280;6449;47.666;9.160;2023-11-21T02:06:19;96475.44;;;8.33;100.00
13594;BME280;6449;47.666;9.160;2023-11-21T02:11:14;96471.38;;;8.42;100.00
13594;BME280;6449;47.666;9.160;2023-11-21T02:16:09;96468.91;;;8.27;100.00
13594;BME280;6449;47.666;9.160;2023-11-21T02:21:04;96466.78;;;8.32;100.00
13594;BME280;6449;47.666;9.160;2023-11-21T02:25:59;96468.44;;;8.33;100.00
13594;BME280;6449;47.666;9.160;2023-11-21T02:30:56;96479.09;;;8.30;100.00
13594;BME280;6449;47.666;9.160;2023-11-21T02:35:51;96466.28;;;8.27;100.00
13594;BME280;6449;47.666;9.160;2023-11-21T02:40:47;96479.84;;;8.32;100.00
13594;BME280;6449;47.666;9.160;2023-11-21T02:45:43;96484.53;;;8.40;100.00
13594;BME280;6449;47.666;9.160;2023-11-21T02:50:36;96484.81;;;8.35;100.00
13594;BME280;6449;47.666;9.160;2023-11-21T02:55:30;96488.28;;;8.36;100.00
13594;BME280;6449;47.666;9.160;2023-11-21T03:00:26;96486.78;;;8.45;100.00
13594;BME280;6449;47.666;9.160;2023-11-21T03:05:22;96489.28;;;8.22;100.00
13594;BME280;6449;47.666;9.160;2023-11-21T03:10:16;96483.94;;;8.24;100.00
13594;BME280;6449;47.666;9.160;2023-11-21T03:15:10;96479.53;;;8.37;100.00
13594;BME280;6449;47.666;9.160;2023-11-21T03:20:05;96474.13;;;8.27;100.00
13594;BME280;6449;47.666;9.160;2023-11-21T03:25:06;96476.00;;;8.25;100.00
13594;BME280;6449;47.666;9.160;2023-11-21T03:30:03;96478.47;;;8.16;100.00
13594;BME280;6449;47.666;9.160;2023-11-21T03:34:59;96463.38;;;8.19;100.00
13594;BME280;6449;47.666;9.160;2023-11-21T03:39:55;96468.06;;;8.27;100.00
13594;BME280;6449;47.666;9.160;2023-11-21T03:44:50;96467.75;;;8.07;100.00
13594;BME280;6449;47.666;9.160;2023-11-21T03:49:44;96469.72;;;8.04;100.00
13594;BME280;6449;47.666;9.160;2023-11-21T03:54:37;96468.50;;;7.97;100.00
13594;BME280;6449;47.666;9.160;2023-11-21T03:59:31;96473.06;;;8.06;100.00
13594;BME280;6449;47.666;9.160;2023-11-21T04:04:25;96468.81;;;8.05;100.00
13594;BME280;6449;47.666;9.160;2023-11-21T04:09:19;96471.41;;;8.05;100.00
13594;BME280;6449;47.666;9.160;2023-11-21T04:14:16;96459.66;;;7.99;100.00
13594;BME280;6449;47.666;9.160;2023-11-21T04:19:09;96461.97;;;7.91;100.00
13594;BME280;6449;47.666;9.160;2023-11-21T04:24:05;96463.63;;;7.92;100.00
13594;BME280;6449;47.666;9.160;2023-11-21T04:28:59;96460.47;;;8.00;100.00
13594;BME280;6449;47.666;9.160;2023-11-21T04:33:52;96461.00;;;7.92;100.00
13594;BME280;6449;47.666;9.160;2023-11-21T04:38:46;96449.13;;;7.88;100.00
13594;BME280;6449;47.666;9.160;2023-11-21T04:43:41;96450.81;;;7.89;100.00
13594;BME280;6449;47.666;9.160;2023-11-21T04:48:34;96455.72;;;7.94;100.00
13594;BME280;6449;47.666;9.160;2023-11-21T04:53:28;96470.94;;;7.87;100.00
13594;BME280;6449;47.666;9.160;2023-11-21T04:58:21;96463.94;;;7.87;100.00
13594;BME280;6449;47.666;9.160;2023-11-21T05:03:16;96467.47;;;7.99;100.00
13594;BME280;6449;47.666;9.160;2023-11-21T05:08:11;96464.50;;;8.04;100.00
13594;BME280;6449;47.666;9.160;2023-11-21T05:13:07;96464.75;;;8.01;100.00
13594;BME280;6449;47.666;9.160;2023-11-21T05:18:02;96465.25;;;8.06;100.00
13594;BME280;6449;47.666;9.160;2023-11-21T05:22:57;96469.56;;;8.18;100.00
13594;BME280;6449;47.666;9.160;2023-11-21T05:27:51;96477.13;;;8.10;100.00
13594;BME280;6449;47.666;9.160;2023-11-21T05:32:45;96476.53;;;8.06;100.00
13594;BME280;6449;47.666;9.160;2023-11-21T05:37:39;96479.63;;;8.11;100.00
13594;BME280;6449;47.666;9.160;2023-11-21T05:42:35;96476.63;;;8.05;100.00
13594;BME280;6449;47.666;9.160;2023-11-21T05:47:30;96481.03;;;8.04;100.00
13594;BME280;6449;47.666;9.160;2023-11-21T05:52:24;96495.13;;;8.02;100.00
13594;BME280;6449;47.666;9.160;2023-11-21T05:57:18;96500.53;;;7.99;100.00
13594;BME280;6449;47.666;9.160;2023-11-21T06:02:15;96508.06;;;8.03;100.00
13594;BME280;6449;47.666;9.160;2023-11-21T06:07:11;96511.00;;;7.99;100.00
13594;BME280;6449;47.666;9.160;2023-11-21T06:12:07;96508.28;;;8.00;100.00
13594;BME280;6449;47.666;9.160;2023-11-21T06:17:03;96512.44;;;8.03;100.00
13594;BME280;6449;47.666;9.160;2023-11-21T06:21:58;96516.34;;;8.21;100.00
13594;BME280;6449;47.666;9.160;2023-11-21T06:26:53;96521.47;;;8.23;100.00
13594;BME280;6449;47.666;9.160;2023-11-21T06:31:46;96521.06;;;8.16;100.00
13594;BME280;6449;47.666;9.160;2023-11-21T06:36:42;96528.03;;;8.04;100.00
13594;BME280;6449;47.666;9.160;2023-11-21T06:41:37;96524.19;;;8.21;100.00
13594;BME280;6449;47.666;9.160;2023-11-21T06:46:31;96532.84;;;8.22;100.00
13594;BME280;6449;47.666;9.160;2023-11-21T06:51:24;96540.38;;;8.13;100.00
13594;BME280;6449;47.666;9.160;2023-11-21T06:56:18;96548.13;;;8.15;100.00
13594;BME280;6449;47.666;9.160;2023-11-21T07:01:13;96562.44;;;8.09;100.00
13594;BME280;6449;47.666;9.160;2023-11-21T07:06:08;96556.69;;;8.17;100.00
13594;BME280;6449;47.666;9.160;2023-11-21T07:11:01;96565.47;;;8.16;100.00
13594;BME280;6449;47.666;9.160;2023-11-21T07:15:56;96561.91;;;8.17;100.00
13594;BME280;6449;47.666;9.160;2023-11-21T07:20:51;96564.91;;;8.24;100.00
13594;BME280;6449;47.666;9.160;2023-11-21T07:25:45;96561.06;;;8.17;100.00
13594;BME280;6449;47.666;9.160;2023-11-21T07:30:39;96562.03;;;8.03;100.00
13594;BME280;6449;47.666;9.160;2023-11-21T07:35:32;96570.06;;;8.12;100.00
13594;BME280;6449;47.666;9.160;2023-11-21T07:40:27;96568.28;;;8.13;100.00
13594;BME280;6449;47.666;9.160;2023-11-21T07:45:23;96565.66;;;8.13;100.00
13594;BME280;6449;47.666;9.160;2023-11-21T07:50:19;96571.69;;;8.26;100.00
13594;BME280;6449;47.666;9.160;2023-11-21T07:55:13;96570.28;;;8.33;100.00
13594;BME280;6449;47.666;9.160;2023-11-21T08:00:10;96582.13;;;8.26;100.00
13594;BME280;6449;47.666;9.160;2023-11-21T08:05:04;96571.25;;;8.32;100.00
13594;BME280;6449;47.666;9.160;2023-11-21T08:10:08;96569.56;;;8.44;100.00
13594;BME280;6449;47.666;9.160;2023-11-21T08:15:03;96566.38;;;8.52;100.00
13594;BME280;6449;47.666;9.160;2023-11-21T08:19:58;96573.34;;;8.64;100.00
13594;BME280;6449;47.666;9.160;2023-11-21T08:24:51;96580.44;;;8.62;100.00
13594;BME280;6449;47.666;9.160;2023-11-21T08:29:45;96586.50;;;8.62;100.00
13594;BME280;6449;47.666;9.160;2023-11-21T08:34:38;96586.16;;;8.67;100.00
13594;BME280;6449;47.666;9.160;2023-11-21T08:39:33;96596.84;;;8.64;100.00
13594;BME280;6449;47.666;9.160;2023-11-21T08:44:27;96589.84;;;8.64;100.00
13594;BME280;6449;47.666;9.160;2023-11-21T08:49:20;96601.75;;;8.69;100.00
13594;BME280;6449;47.666;9.160;2023-11-21T08:54:14;96601.63;;;8.70;100.00
13594;BME280;6449;47.666;9.160;2023-11-21T08:59:09;96612.34;;;8.78;100.00
13594;BME280;6449;47.666;9.160;2023-11-21T09:04:02;96611.22;;;8.93;100.00
13594;BME280;6449;47.666;9.160;2023-11-21T09:08:56;96619.56;;;8.99;100.00
13594;BME280;6449;47.666;9.160;2023-11-21T09:13:49;96617.88;;;8.98;100.00
13594;BME280;6449;47.666;9.160;2023-11-21T09:18:45;96616.72;;;9.02;100.00
13594;BME280;6449;47.666;9.160;2023-11-21T09:23:38;96623.47;;;8.93;100.00
13594;BME280;6449;47.666;9.160;2023-11-21T09:28:32;96632.53;;;9.00;100.00
13594;BME280;6449;47.666;9.160;2023-11-21T09:33:25;96629.31;;;8.97;100.00
13594;BME280;6449;47.666;9.160;2023-11-21T09:38:20;96635.53;;;9.07;100.00
13594;BME280;6449;47.666;9.160;2023-11-21T09:43:17;96634.00;;;9.15;100.00
13594;BME280;6449;47.666;9.160;2023-11-21T09:48:11;96637.03;;;9.33;100.00
13594;BME280;6449;47.666;9.160;2023-11-21T09:53:13;96637.72;;;9.24;100.00
13594;BME280;6449;47.666;9.160;2023-11-21T09:58:10;96640.19;;;9.26;100.00
13594;BME280;6449;47.666;9.160;2023-11-21T10:03:04;96639.47;;;9.12;100.00
13594;BME280;6449;47.666;9.160;2023-11-21T10:07:59;96626.94;;;9.05;100.00
13594;BME280;6449;47.666;9.160;2023-11-21T10:12:56;96623.44;;;9.17;100.00
13594;BME280;6449;47.666;9.160;2023-11-21T10:17:52;96617.97;;;9.31;100.00
13594;BME280;6449;47.666;9.160;2023-11-21T10:22:46;96618.97;;;9.41;100.00
13594;BME280;6449;47.666;9.160;2023-11-21T10:27:40;96618.50;;;9.48;100.00
13594;BME280;6449;47.666;9.160;2023-11-21T10:32:35;96620.78;;;9.63;100.00
13594;BME280;6449;47.666;9.160;2023-11-21T10:37:30;96619.59;;;9.67;100.00
13594;BME280;6449;47.666;9.160;2023-11-21T10:42:23;96620.28;;;9.58;100.00
13594;BME280;6449;47.666;9.160;2023-11-21T10:47:17;96620.41;;;9.45;100.00
13594;BME280;6449;47.666;9.160;2023-11-21T10:52:13;96613.25;;;9.48;100.00
13594;BME280;6449;47.666;9.160;2023-11-21T10:57:13;96603.28;;;9.64;100.00
13594;BME280;6449;47.666;9.160;2023-11-21T11:02:22;96614.63;;;9.64;100.00
13594;BME280;6449;47.666;9.160;2023-11-21T11:07:17;96614.97;;;9.82;100.00
13594;BME280;6449;47.666;9.160;2023-11-21T11:12:15;96610.91;;;10.01;100.00
13594;BME280;6449;47.666;9.160;2023-11-21T11:17:12;96599.97;;;10.29;100.00
13594;BME280;6449;47.666;9.160;2023-11-21T11:22:24;96638.88;;;10.22;100.00
13594;BME280;6449;47.666;9.160;2023-11-21T11:27:36;96639.59;;;9.80;100.00
13594;BME280;6449;47.666;9.160;2023-11-21T11:32:42;96620.66;;;9.54;100.00
13594;BME280;6449;47.666;9.160;2023-11-21T11:37:39;96614.19;;;9.35;100.00
13594;BME280;6449;47.666;9.160;2023-11-21T11:42:34;96615.03;;;9.36;100.00
13594;BME280;6449;47.666;9.160;2023-11-21T11:47:31;96608.94;;;9.24;100.00
13594;BME280;6449;47.666;9.160;2023-11-21T11:52:39;96616.94;;;8.99;100.00
13594;BME280;6449;47.666;9.160;2023-11-21T11:57:35;96604.16;;;9.07;100.00
13594;BME280;6449;47.666;9.160;2023-11-21T12:02:29;96615.28;;;8.98;100.00
13594;BME280;6449;47.666;9.160;2023-11-21T12:07:23;96616.22;;;8.97;100.00
13594;BME280;6449;47.666;9.160;2023-11-21T12:12:17;96611.22;;;8.93;100.00
13594;BME280;6449;47.666;9.160;2023-11-21T12:17:13;96606.31;;;8.89;100.00
13594;BME280;6449;47.666;9.160;2023-11-21T12:22:06;96604.59;;;9.01;100.00
13594;BME280;6449;47.666;9.160;2023-11-21T12:27:03;96603.53;;;9.03;100.00
13594;BME280;6449;47.666;9.160;2023-11-21T12:31:57;96601.38;;;8.97;100.00
13594;BME280;6449;47.666;9.160;2023-11-21T12:36:52;96600.25;;;8.88;100.00
13594;BME280;6449;47.666;9.160;2023-11-21T12:41:46;96613.28;;;8.77;100.00
13594;BME280;6449;47.666;9.160;2023-11-21T12:46:42;96621.41;;;8.85;100.00
13594;BME280;6449;47.666;9.160;2023-11-21T12:51:38;96610.53;;;9.03;100.00
13594;BME280;6449;47.666;9.160;2023-11-21T12:56:38;96592.75;;;9.19;100.00
13594;BME280;6449;47.666;9.160;2023-11-21T13:01:31;96603.53;;;9.50;100.00
13594;BME280;6449;47.666;9.160;2023-11-21T13:06:28;96608.28;;;9.56;100.00
13594;BME280;6449;47.666;9.160;2023-11-21T13:11:25;96616.25;;;9.54;100.00
13594;BME280;6449;47.666;9.160;2023-11-21T13:16:22;96616.13;;;9.56;100.00
13594;BME280;6449;47.666;9.160;2023-11-21T13:21:16;96626.59;;;9.56;100.00
13594;BME280;6449;47.666;9.160;2023-11-21T13:26:10;96621.03;;;9.60;100.00
13594;BME280;6449;47.666;9.160;2023-11-21T13:31:05;96624.97;;;9.66;100.00
13594;BME280;6449;47.666;9.160;2023-11-21T13:36:15;96629.00;;;9.70;100.00
13594;BME280;6449;47.666;9.160;2023-11-21T13:41:14;96630.53;;;9.73;100.00
13594;BME280;6449;47.666;9.160;2023-11-21T13:46:07;96636.88;;;9.81;100.00
13594;BME280;6449;47.666;9.160;2023-11-21T13:51:07;96643.16;;;9.79;100.00
13594;BME280;6449;47.666;9.160;2023-11-21T13:56:09;96653.06;;;9.75;100.00
13594;BME280;6449;47.666;9.160;2023-11-21T14:01:03;96648.84;;;9.61;100.00
13594;BME280;6449;47.666;9.160;2023-11-21T14:05:58;96637.31;;;9.64;100.00
13594;BME280;6449;47.666;9.160;2023-11-21T14:10:52;96649.44;;;9.54;100.00
13594;BME280;6449;47.666;9.160;2023-11-21T14:15:51;96655.50;;;9.43;100.00
13594;BME280;6449;47.666;9.160;2023-11-21T14:20:49;96668.03;;;9.27;100.00
13594;BME280;6449;47.666;9.160;2023-11-21T14:25:43;96664.00;;;9.23;100.00
13594;BME280;6449;47.666;9.160;2023-11-21T14:30:36;96667.97;;;9.15;100.00
13594;BME280;6449;47.666;9.160;2023-11-21T14:35:32;96665.97;;;9.19;100.00
13594;BME280;6449;47.666;9.160;2023-11-21T14:40:27;96664.06;;;9.21;100.00
13594;BME280;6449;47.666;9.160;2023-11-21T14:45:25;96663.03;;;9.24;100.00
13594;BME280;6449;47.666;9.160;2023-11-21T14:50:19;96664.94;;;9.22;100.00
13594;BME280;6449;47.666;9.160;2023-11-21T14:55:27;96669.09;;;9.24;100.00
13594;BME280;6449;47.666;9.160;2023-11-21T15:00:31;96675.41;;;9.22;100.00
13594;BME280;6449;47.666;9.160;2023-11-21T15:05:38;96674.13;;;9.03;100.00
13594;BME280;6449;47.666;9.160;2023-11-21T15:10:34;96676.88;;;9.02;100.00
13594;BME280;6449;47.666;9.160;2023-11-21T15:15:38;96681.34;;;9.00;100.00
13594;BME280;6449;47.666;9.160;2023-11-21T15:20:32;96681.97;;;9.03;100.00
13594;BME280;6449;47.666;9.160;2023-11-21T15:25:25;96687.81;;;9.07;100.00
13594;BME280;6449;47.666;9.160;2023-11-21T15:30:20;96689.69;;;9.05;100.00
13594;BME280;6449;47.666;9.160;2023-11-21T15:35:16;96696.63;;;9.06;100.00
13594;BME280;6449;47.666;9.160;2023-11-21T15:40:11;96700.91;;;9.07;100.00
13594;BME280;6449;47.666;9.160;2023-11-21T15:45:08;96693.06;;;9.07;100.00
13594;BME280;6449;47.666;9.160;2023-11-21T15:50:04;96695.75;;;9.05;100.00
13594;BME280;6449;47.666;9.160;2023-11-21T15:55:01;96708.25;;;9.02;100.00
13594;BME280;6449;47.666;9.160;2023-11-21T15:59:54;96713.22;;;9.05;100.00
13594;BME280;6449;47.666;9.160;2023-11-21T16:04:47;96722.97;;;9.03;100.00
13594;BME280;6449;47.666;9.160;2023-11-21T16:09:42;96719.84;;;8.98;100.00
13594;BME280;6449;47.666;9.160;2023-11-21T16:14:37;96723.88;;;8.90;100.00
13594;BME280;6449;47.666;9.160;2023-11-21T16:19:34;96731.66;;;8.79;100.00
13594;BME280;6449;47.666;9.160;2023-11-21T16:24:27;96741.88;;;8.82;100.00
13594;BME280;6449;47.666;9.160;2023-11-21T16:29:23;96741.34;;;8.90;100.00
13594;BME280;6449;47.666;9.160;2023-11-21T16:34:20;96748.50;;;8.99;100.00
13594;BME280;6449;47.666;9.160;2023-11-21T16:39:15;96759.69;;;9.01;100.00
13594;BME280;6449;47.666;9.160;2023-11-21T16:44:15;96755.94;;;8.92;100.00
13594;BME280;6449;47.666;9.160;2023-11-21T16:49:10;96756.91;;;8.91;100.00
13594;BME280;6449;47.666;9.160;2023-11-21T16:54:04;96767.47;;;8.90;100.00
13594;BME280;6449;47.666;9.160;2023-11-21T16:58:58;96770.28;;;8.87;100.00
13594;BME280;6449;47.666;9.160;2023-11-21T17:03:51;96784.53;;;8.83;100.00
13594;BME280;6449;47.666;9.160;2023-11-21T17:08:47;96797.91;;;8.78;100.00
13594;BME280;6449;47.666;9.160;2023-11-21T17:13:40;96802.97;;;8.69;100.00
13594;BME280;6449;47.666;9.160;2023-11-21T17:18:34;96799.19;;;8.73;100.00
13594;BME280;6449;47.666;9.160;2023-11-21T17:23:27;96802.53;;;8.75;100.00
13594;BME280;6449;47.666;9.160;2023-11-21T17:28:23;96807.75;;;8.75;100.00
13594;BME280;6449;47.666;9.160;2023-11-21T17:33:16;96806.31;;;8.71;100.00
13594;BME280;6449;47.666;9.160;2023-11-21T17:38:10;96820.31;;;8.70;100.00
13594;BME280;6449;47.666;9.160;2023-11-21T17:43:04;96825.66;;;8.55;100.00
13594;BME280;6449;47.666;9.160;2023-11-21T17:48:00;96835.47;;;8.52;100.00
13594;BME280;6449;47.666;9.160;2023-11-21T17:52:53;96839.75;;;8.40;100.00
13594;BME280;6449;47.666;9.160;2023-11-21T17:57:47;96833.50;;;8.43;100.00
13594;BME280;6449;47.666;9.160;2023-11-21T18:02:40;96838.94;;;8.39;100.00
13594;BME280;6449;47.666;9.160;2023-11-21T18:07:36;96843.19;;;8.40;100.00
13594;BME280;6449;47.666;9.160;2023-11-21T18:12:29;96836.06;;;8.30;100.00
13594;BME280;6449;47.666;9.160;2023-11-21T18:17:22;96853.31;;;8.32;100.00
13594;BME280;6449;47.666;9.160;2023-11-21T18:22:16;96859.50;;;8.31;100.00
13594;BME280;6449;47.666;9.160;2023-11-21T18:27:12;96857.78;;;8.30;100.00
13594;BME280;6449;47.666;9.160;2023-11-21T18:32:06;96873.88;;;8.24;100.00
13594;BME280;6449;47.666;9.160;2023-11-21T18:37:02;96880.56;;;8.28;100.00
13594;BME280;6449;47.666;9.160;2023-11-21T18:41:55;96880.16;;;8.34;100.00
13594;BME280;6449;47.666;9.160;2023-11-21T18:46:51;96880.53;;;8.43;100.00
13594;BME280;6449;47.666;9.160;2023-11-21T18:51:45;96888.25;;;8.44;100.00
13594;BME280;6449;47.666;9.160;2023-11-21T18:56:41;96901.19;;;8.46;100.00
13594;BME280;6449;47.666;9.160;2023-11-21T19:01:37;96896.31;;;8.54;100.00
13594;BME280;6449;47.666;9.160;2023-11-21T19:06:32;96903.81;;;8.46;100.00
13594;BME280;6449;47.666;9.160;2023-11-21T19:11:25;96913.34;;;8.20;100.00
13594;BME280;6449;47.666;9.160;2023-11-21T19:16:19;96909.31;;;8.28;100.00
13594;BME280;6449;47.666;9.160;2023-11-21T19:21:13;96915.50;;;8.40;100.00
13594;BME280;6449;47.666;9.160;2023-11-21T19:26:09;96916.88;;;8.46;100.00
13594;BME280;6449;47.666;9.160;2023-11-21T19:31:03;96916.69;;;8.49;100.00
13594;BME280;6449;47.666;9.160;2023-11-21T19:35:56;96925.25;;;8.51;100.00
13594;BME280;6449;47.666;9.160;2023-11-21T19:40:50;96935.69;;;8.51;100.00
13594;BME280;6449;47.666;9.160;2023-11-21T19:45:45;96940.50;;;8.44;100.00
13594;BME280;6449;47.666;9.160;2023-11-21T19:50:41;96940.31;;;8.47;100.00
13594;BME280;6449;47.666;9.160;2023-11-21T19:55:34;96948.75;;;8.51;100.00
13594;BME280;6449;47.666;9.160;2023-11-21T20:00:30;96957.44;;;8.51;100.00
13594;BME280;6449;47.666;9.160;2023-11-21T20:05:28;96961.81;;;8.51;100.00
13594;BME280;6449;47.666;9.160;2023-11-21T20:10:22;96979.69;;;8.57;100.00
13594;BME280;6449;47.666;9.160;2023-11-21T20:15:15;96986.50;;;8.59;100.00
13594;BME280;6449;47.666;9.160;2023-11-21T20:20:12;96994.47;;;8.58;100.00
13594;BME280;6449;47.666;9.160;2023-11-21T20:25:10;97012.00;;;8.56;100.00
13594;BME280;6449;47.666;9.160;2023-11-21T20:30:05;97007.19;;;8.62;100.00
13594;BME280;6449;47.666;9.160;2023-11-21T20:35:00;97019.97;;;8.67;100.00
13594;BME280;6449;47.666;9.160;2023-11-21T20:39:53;97026.81;;;8.43;100.00
13594;BME280;6449;47.666;9.160;2023-11-21T20:44:48;97034.47;;;8.31;100.00
13594;BME280;6449;47.666;9.160;2023-11-21T20:49:43;97047.28;;;8.22;100.00
13594;BME280;6449;47.666;9.160;2023-11-21T20:54:48;97063.91;;;8.21;100.00
13594;BME280;6449;47.666;9.160;2023-11-21T20:59:43;97055.88;;;8.09;100.00
13594;BME280;6449;47.666;9.160;2023-11-21T21:04:38;97063.13;;;8.19;100.00
13594;BME280;6449;47.666;9.160;2023-11-21T21:09:32;97062.25;;;8.05;100.00
13594;BME280;6449;47.666;9.160;2023-11-21T21:14:31;97059.81;;;8.02;100.00
13594;BME280;6449;47.666;9.160;2023-11-21T21:19:33;97058.31;;;8.12;100.00
13594;BME280;6449;47.666;9.160;2023-11-21T21:24:28;97065.03;;;8.02;100.00
13594;BME280;6449;47.666;9.160;2023-11-21T21:29:21;97062.59;;;8.13;100.00
13594;BME280;6449;47.666;9.160;2023-11-21T21:34:18;97061.44;;;8.32;100.00
13594;BME280;6449;47.666;9.160;2023-11-21T21:39:13;97063.09;;;8.33;100.00
13594;BME280;6449;47.666;9.160;2023-11-21T21:44:08;97076.34;;;8.30;100.00
13594;BME280;6449;47.666;9.160;2023-11-21T21:49:02;97074.56;;;8.30;100.00
13594;BME280;6449;47.666;9.160;2023-11-21T21:54:02;97085.47;;;8.10;100.00
13594;BME280;6449;47.666;9.160;2023-11-21T21:59:00;97089.75;;;8.11;100.00
13594;BME280;6449;47.666;9.160;2023-11-21T22:03:55;97087.75;;;8.14;100.00
13594;BME280;6449;47.666;9.160;2023-11-21T22:08:51;97086.34;;;8.23;100.00
13594;BME280;6449;47.666;9.160;2023-11-21T22:13:45;97092.31;;;8.25;100.00
13594;BME280;6449;47.666;9.160;2023-11-21T22:18:39;97090.09;;;8.19;100.00
13594;BME280;6449;47.666;9.160;2023-11-21T22:23:34;97089.38;;;8.17;100.00
13594;BME280;6449;47.666;9.160;2023-11-21T22:28:30;97095.59;;;8.14;100.00
13594;BME280;6449;47.666;9.160;2023-11-21T22:33:24;97097.19;;;8.17;100.00
13594;BME280;6449;47.666;9.160;2023-11-21T22:38:20;97090.59;;;8.11;100.00
13594;BME280;6449;47.666;9.160;2023-11-21T22:43:15;97098.31;;;8.13;100.00
13594;BME280;6449;47.666;9.160;2023-11-21T22:48:09;97102.69;;;8.12;100.00
13594;BME280;6449;47.666;9.160;2023-11-21T22:53:02;97107.91;;;8.12;100.00
13594;BME280;6449;47.666;9.160;2023-11-21T22:57:56;97103.53;;;8.13;100.00
13594;BME280;6449;47.666;9.160;2023-11-21T23:02:51;97108.59;;;8.16;100.00
13594;BME280;6449;47.666;9.160;2023-11-21T23:07:44;97108.66;;;8.14;100.00
13594;BME280;6449;47.666;9.160;2023-11-21T23:12:38;97118.19;;;8.16;100.00
13594;BME280;6449;47.666;9.160;2023-11-21T23:17:33;97119.03;;;8.16;100.00
13594;BME280;6449;47.666;9.160;2023-11-21T23:22:28;97120.03;;;8.13;100.00
13594;BME280;6449;47.666;9.160;2023-11-21T23:27:21;97123.69;;;7.97;100.00
13594;BME280;6449;47.666;9.160;2023-11-21T23:32:14;97120.81;;;8.01;100.00
13594;BME280;6449;47.666;9.160;2023-11-21T23:37:11;97127.44;;;8.07;100.00
13594;BME280;6449;47.666;9.160;2023-11-21T23:42:06;97136.59;;;8.00;100.00
13594;BME280;6449;47.666;9.160;2023-11-21T23:47:00;97124.44;;;7.99;100.00
13594;BME280;6449;47.666;9.160;2023-11-21T23:51:59;97117.38;;;8.01;100.00
13594;BME280;6449;47.666;9.160;2023-11-21T23:56:53;97119.31;;;7.97;100.00
